Have a Safe July 4th! 

Flight Track Log - Related Links

Times and Time Zones

All times are in EDT time to prevent confusion due to time zone crossing. See the SSX930 flight status page for this flight to view local times or setup timezone preferences in your user account.

Time Position Orientation Groundspeed Altitude Reporting Facility
EDT Latitude Longitude Course Direction KTS MPH feet Rate Location/Type
Sat 06:23:46 PM 39.2603 -106.9355 340° North  Level FlightAware Approximate
Sat 06:25:10 PM 39.3047 -106.9561 293° West 224 258 10,800  Level Denver Center
Sat 06:25:44 PM 39.3214 -107.0072 310° West 239 275 12,700 2,500 Climbing Denver Center
Sat 06:26:10 PM 39.3442 -107.0425 32° Northeast 252 290 13,300 1,953 Climbing Denver Center
Sat 06:27:10 PM 39.4089 -106.9892 98° East 310 357 15,500 2,350 Climbing Denver Center
Sat 06:28:10 PM 39.3969 -106.8844 99° East 291 335 18,000 1,750 Climbing Denver Center
Sat 06:29:10 PM 39.3867 -106.8008 95° East 274 315 19,000 500 Climbing Denver Center
Sat 06:30:10 PM 39.3786 -106.6908 100° East 292 336 19,000 100 Level Denver Center
Sat 06:31:10 PM 39.3622 -106.5672 106° East 322 371 19,200 1,000 Climbing Denver Center
Sat 06:32:10 PM 39.3372 -106.4517 104° East 316 364 21,000 900 Climbing Denver Center
Sat 06:33:10 PM 39.3164 -106.3469 105° East 306 352 21,000  Level Denver Center
Sat 06:34:10 PM 39.2953 -106.2450 102° East 311 358 21,000  Level Denver Center
Sat 06:35:10 PM 39.2761 -106.1272 107° East 332 382 21,000  Level Denver Center
Sat 06:36:10 PM 39.2486 -106.0094 106° East 339 390 21,000  Level Denver Center
Sat 06:37:10 PM 39.2231 -105.8917 107° East 339 390 21,000  Level Denver Center
Sat 06:38:10 PM 39.1953 -105.7714 105° East 339 390 21,000 -500 Level Denver Center
Sat 06:39:10 PM 39.1717 -105.6564 79° East 339 390 20,000 -1,300 Descending Denver Center
Sat 06:40:10 PM 39.1894 -105.5356 70° East 333 383 18,400 -1,700 Descending Denver Center
Sat 06:41:10 PM 39.2219 -105.4225 69° East 334 384 16,600 -1,700 Descending Denver Center
Sat 06:42:10 PM 39.2564 -105.3067 52° Northeast 345 397 15,000 -1,000 Descending Denver Center
Sat 06:43:10 PM 39.3197 -105.2036 40° Northeast 327 376 14,600 -700 Descending Denver Center
Sat 06:44:10 PM 39.3897 -105.1272 38° Northeast 327 376 13,600 -800 Descending Denver Center
Sat 06:45:10 PM 39.4578 -105.0586 42° Northeast 321 369 13,000 -300 Descending Denver Center
Sat 06:46:10 PM 39.5236 -104.9819 40° Northeast 316 364 13,000  Level Denver Center
Sat 06:47:10 PM 39.5894 -104.9106 31° Northeast 316 364 13,000  Level Denver Center
Sat 06:48:24 PM 39.6667 -104.8500 North 290 334 13,000 -259 Level Denver TRACON
Sat 06:49:29 PM 39.7667 -104.8333 360° North 300 345 12,400 -773 Descending Denver TRACON
Sat 06:50:36 PM 39.8500 -104.8333 11° North 280 322 11,300 -756 Descending Denver TRACON
Sat 06:51:36 PM 39.9167 -104.8167 27° Northeast 260 299 10,800 -1,125 Descending Denver TRACON
Sat 06:52:28 PM 39.9667 -104.7833 90° East 256 295 9,200 -1,780 Descending Denver TRACON
Sat 06:53:34 PM 39.9667 -104.7000 180° South 224 258 7,300 -1,465 Descending Denver TRACON
Sat 06:54:35 PM 39.9333 -104.7000 166° South 140 161 6,100 -1,180 Descending Denver TRACON
Sat 06:58:46 PM 39.8502 -104.6723 166° South  Level FlightAware Approximate

Login

Don't have an account? Register now (free) for customized features, flight alerts, and more!